Time;durP1;ratioP1;P1;durP2;ratioP2;P2;SDS_P1;SDS_P2;PMS_P1;PMS_P2;Temp;Humidity;BMP_temperature;BMP_pressure;BME280_temperature;BME280_humidity;BME280_pressure;Samples;Min_cycle;Max_cycle;Signal;HPM_P1;HPM_P2
2023/10/11 00:03:05;;;;;;;31.63;22.40;;;15.80;99.90;;;;;;6126195;23;20017;-87
2023/10/11 00:05:40;;;;;;;30.30;25.10;;;15.80;99.90;;;;;;6102544;23;20367;-87
2023/10/11 00:08:10;;;;;;;32.70;20.48;;;15.80;99.90;;;;;;6101250;23;20017;-87
2023/10/11 00:10:45;;;;;;;34.75;28.88;;;15.80;99.90;;;;;;6101434;23;20014;-88
2023/10/11 00:13:12;;;;;;;30.92;25.00;;;15.80;99.90;;;;;;6101780;23;20014;-88
2023/10/11 00:15:38;;;;;;;35.42;28.88;;;15.90;99.90;;;;;;6101658;23;20096;-87
2023/10/11 00:18:04;;;;;;;37.80;34.20;;;15.80;99.90;;;;;;6101369;23;20009;-87
2023/10/11 00:20:47;;;;;;;29.30;20.70;;;15.80;99.90;;;;;;6101414;23;20499;-88
2023/10/11 00:23:20;;;;;;;30.77;25.45;;;15.80;99.90;;;;;;6100982;23;20040;-88
2023/10/11 00:25:49;;;;;;;35.47;30.70;;;15.80;99.90;;;;;;6102040;23;20013;-88
2023/10/11 00:28:14;;;;;;;31.13;25.83;;;15.80;99.90;;;;;;6101241;23;20093;-88
2023/10/11 00:30:40;;;;;;;39.28;34.97;;;16.00;99.90;;;;;;6101467;23;20048;-88
2023/10/11 00:33:10;;;;;;;32.28;23.55;;;15.70;99.90;;;;;;6102483;23;20009;-87
2023/10/11 00:35:47;;;;;;;30.60;23.17;;;15.90;99.90;;;;;;6102863;23;20048;-87
2023/10/11 00:38:18;;;;;;;35.97;32.17;;;15.90;99.90;;;;;;6103504;23;20020;-88
2023/10/11 00:43:46;;;;;;;30.63;25.63;;;15.70;99.90;;;;;;6127726;23;20389;-87
2023/10/11 00:46:14;;;;;;;31.42;20.25;;;15.70;99.90;;;;;;6127250;23;20013;-87
2023/10/11 00:48:53;;;;;;;34.42;29.10;;;15.80;99.90;;;;;;6103282;23;20376;-87
2023/10/11 00:51:26;;;;;;;34.10;23.75;;;15.70;99.90;;;;;;6103267;23;20056;-90
2023/10/11 00:53:52;;;;;;;38.20;34.22;;;15.80;99.90;;;;;;6105641;23;20048;-87
2023/10/11 00:56:20;;;;;;;44.97;38.65;;;15.50;99.90;;;;;;6103193;23;20014;-87
2023/10/11 00:58:49;;;;;;;34.78;29.67;;;15.70;99.90;;;;;;6103122;23;20388;-88
2023/10/11 01:01:17;;;;;;;40.08;29.13;;;15.70;99.90;;;;;;6103107;23;20025;-87
2023/10/11 01:03:43;;;;;;;41.08;24.65;;;15.70;99.90;;;;;;6103434;23;20017;-88
2023/10/11 01:06:12;;;;;;;44.95;34.38;;;15.70;99.90;;;;;;6102910;23;20022;-87
2023/10/11 01:08:40;;;;;;;41.25;26.38;;;15.70;99.90;;;;;;6127382;23;20014;-87
2023/10/11 01:11:11;;;;;;;34.42;21.70;;;15.70;99.90;;;;;;6102866;23;20040;-88
2023/10/11 01:13:40;;;;;;;36.58;26.38;;;15.70;99.90;;;;;;6103603;23;20345;-90
2023/10/11 01:16:07;;;;;;;38.40;31.63;;;15.70;99.90;;;;;;6102944;23;20041;-87
2023/10/11 01:18:33;;;;;;;34.95;23.27;;;15.80;99.90;;;;;;6102785;23;20012;-87
2023/10/11 01:21:03;;;;;;;42.50;29.63;;;15.70;99.90;;;;;;6103099;23;20049;-88
2023/10/11 01:23:29;;;;;;;43.13;27.08;;;15.70;99.90;;;;;;6102763;23;20009;-87
2023/10/11 01:25:55;;;;;;;39.78;21.70;;;15.70;99.90;;;;;;6102467;23;20075;-87
2023/10/11 01:28:22;;;;;;;44.35;32.00;;;15.60;99.90;;;;;;6103129;23;20014;-87
2023/10/11 01:30:47;;;;;;;40.42;28.15;;;15.80;99.90;;;;;;6127182;23;20021;-87
2023/10/11 01:33:16;;;;;;;39.53;26.15;;;15.70;99.90;;;;;;6102338;23;20013;-87
2023/10/11 01:35:42;;;;;;;43.65;26.17;;;15.70;99.90;;;;;;6103281;23;20033;-88
2023/10/11 01:38:08;;;;;;;35.53;20.23;;;15.70;99.90;;;;;;6102535;23;20048;-87
2023/10/11 01:40:34;;;;;;;36.53;25.35;;;15.70;99.90;;;;;;6103225;23;20018;-87
2023/10/11 01:43:03;;;;;;;43.22;23.48;;;15.70;99.90;;;;;;6101867;23;20037;-88
2023/10/11 01:45:29;;;;;;;43.50;25.45;;;15.70;99.90;;;;;;6102462;23;20014;-87
2023/10/11 01:47:56;;;;;;;37.72;25.73;;;15.70;99.90;;;;;;6126063;23;20016;-88
2023/10/11 01:50:24;;;;;;;39.00;25.17;;;15.70;99.90;;;;;;6102720;23;20019;-87
2023/10/11 01:52:50;;;;;;;46.55;29.10;;;15.70;99.90;;;;;;6127056;23;20032;-87
2023/10/11 01:55:17;;;;;;;42.72;26.95;;;15.60;99.90;;;;;;6126870;23;20052;-87
2023/10/11 01:57:48;;;;;;;45.28;25.33;;;15.60;99.90;;;;;;6102214;23;20071;-88
2023/10/11 02:00:24;;;;;;;40.78;23.83;;;15.60;99.90;;;;;;6102864;23;20013;-87
2023/10/11 02:02:55;;;;;;;39.78;26.50;;;15.60;99.90;;;;;;6101856;23;20330;-88
2023/10/11 02:05:22;;;;;;;43.25;24.90;;;15.60;99.90;;;;;;6102528;23;20069;-87
2023/10/11 02:07:48;;;;;;;41.83;28.33;;;15.60;99.90;;;;;;6102493;23;20006;-88
2023/10/11 02:10:13;;;;;;;45.10;23.80;;;15.60;99.90;;;;;;6102090;23;20092;-87
2023/10/11 02:12:46;;;;;;;42.60;23.33;;;15.70;99.90;;;;;;6102486;23;20013;-87
2023/10/11 02:15:21;;;;;;;44.20;32.33;;;15.60;99.90;;;;;;6102178;23;20013;-87
2023/10/11 02:17:51;;;;;;;47.65;31.40;;;15.60;99.90;;;;;;6101958;23;20016;-88
2023/10/11 02:20:21;;;;;;;43.13;24.27;;;15.50;99.90;;;;;;6103059;23;20202;-88
2023/10/11 02:22:51;;;;;;;45.63;29.17;;;15.60;99.90;;;;;;6102353;23;20639;-88
2023/10/11 02:25:24;;;;;;;42.70;23.50;;;15.60;99.90;;;;;;6102386;23;20022;-87
2023/10/11 02:27:50;;;;;;;;;;;15.60;99.90;;;;;;6102995;23;20479;-87
2023/10/11 02:30:22;;;;;;;50.53;30.38;;;15.60;99.90;;;;;;6126293;23;19923;-88
2023/10/11 02:32:52;;;;;;;52.47;31.67;;;15.50;99.90;;;;;;6126450;23;20092;-87
2023/10/11 02:35:19;;;;;;;45.40;28.85;;;15.60;99.90;;;;;;6101976;23;20020;-88
2023/10/11 02:37:46;;;;;;;43.00;26.33;;;15.60;99.90;;;;;;6102394;23;20018;-87
2023/10/11 02:40:22;;;;;;;42.83;24.83;;;15.60;99.90;;;;;;6102305;23;20092;-87
2023/10/11 02:42:49;;;;;;;43.50;27.88;;;15.60;99.90;;;;;;6102228;23;20013;-88
2023/10/11 02:45:19;;;;;;;47.25;30.40;;;15.70;99.90;;;;;;6102748;23;20009;-87
2023/10/11 02:47:47;;;;;;;50.25;30.15;;;15.60;99.90;;;;;;6101386;23;20017;-87
2023/10/11 02:50:13;;;;;;;41.90;27.27;;;15.60;99.90;;;;;;6126547;23;20013;-87
2023/10/11 02:52:39;;;;;;;53.13;30.35;;;15.60;99.90;;;;;;6102070;23;20018;-88
2023/10/11 02:55:20;;;;;;;47.92;34.08;;;15.60;99.90;;;;;;6102165;23;20014;-87
2023/10/11 02:57:46;;;;;;;54.22;27.75;;;15.70;99.90;;;;;;6102155;23;20041;-87
2023/10/11 03:00:21;;;;;;;48.03;27.23;;;15.50;99.90;;;;;;6101094;23;20016;-87
2023/10/11 03:02:54;;;;;;;50.10;24.92;;;15.60;99.90;;;;;;6101740;23;20013;-88
2023/10/11 03:05:27;;;;;;;47.75;31.73;;;15.60;99.90;;;;;;6102162;23;20024;-88
2023/10/11 03:08:03;;;;;;;51.70;35.05;;;16.10;99.90;;;;;;6102081;23;20017;-87
2023/10/11 03:10:43;;;;;;;49.78;32.78;;;15.50;99.90;;;;;;6102775;23;20010;-87
2023/10/11 03:13:10;;;;;;;45.65;28.05;;;15.40;99.90;;;;;;6101488;23;20441;-87
2023/10/11 03:15:38;;;;;;;47.88;27.42;;;15.00;99.90;;;;;;6101450;23;20013;-87
2023/10/11 03:18:06;;;;;;;49.80;30.60;;;15.60;99.90;;;;;;6102192;23;20020;-87
2023/10/11 03:20:38;;;;;;;49.25;28.70;;;15.40;99.90;;;;;;6102556;23;20017;-87
2023/10/11 03:23:11;;;;;;;51.30;29.48;;;15.50;99.90;;;;;;6102171;23;20016;-87
2023/10/11 03:25:48;;;;;;;58.78;32.63;;;15.40;99.90;;;;;;6102448;23;20164;-88
2023/10/11 03:28:15;;;;;;;47.60;29.55;;;15.50;99.90;;;;;;6102215;23;20147;-87
2023/10/11 03:30:42;;;;;;;52.58;28.92;;;15.40;99.90;;;;;;6101502;23;20010;-87
2023/10/11 03:33:09;;;;;;;41.75;24.77;;;15.50;99.90;;;;;;6101801;23;20096;-87
2023/10/11 03:35:38;;;;;;;50.58;27.35;;;15.90;99.90;;;;;;6126584;23;20010;-88
2023/10/11 03:38:06;;;;;;;46.30;23.98;;;15.40;99.90;;;;;;6101388;23;20017;-87
2023/10/11 03:40:34;;;;;;;46.03;27.15;;;15.50;99.90;;;;;;6126348;23;20025;-87
2023/10/11 03:43:16;;;;;;;45.25;28.05;;;16.00;99.90;;;;;;6101837;23;20457;-88
2023/10/11 03:45:49;;;;;;;47.78;27.25;;;15.50;99.90;;;;;;6101249;23;20010;-87
2023/10/11 03:48:20;;;;;;;48.92;31.02;;;15.50;99.90;;;;;;6102384;23;20013;-87
2023/10/11 03:50:51;;;;;;;45.83;30.38;;;15.70;99.90;;;;;;6101859;23;20013;-87
2023/10/11 03:53:17;;;;;;;51.72;29.65;;;15.60;99.90;;;;;;6101582;23;20017;-86
2023/10/11 03:55:47;;;;;;;41.58;31.70;;;16.00;99.90;;;;;;6101534;23;20017;-87
2023/10/11 04:01:00;;;;;;;41.38;26.95;;;15.60;99.90;;;;;;6128088;23;20017;-87
2023/10/11 04:03:27;;;;;;;41.95;24.17;;;15.60;99.90;;;;;;6101628;23;20014;-88
2023/10/11 04:05:55;;;;;;;43.80;25.23;;;15.90;99.90;;;;;;6101900;23;20009;-88
2023/10/11 04:08:24;;;;;;;41.58;22.38;;;15.70;99.90;;;;;;6103296;23;20041;-86
2023/10/11 04:10:51;;;;;;;43.13;26.40;;;15.70;99.90;;;;;;6129699;23;20009;-86
2023/10/11 04:13:24;;;;;;;39.65;25.55;;;15.70;99.90;;;;;;6127723;23;20028;-87
2023/10/11 04:15:51;;;;;;;;;;;15.70;99.90;;;;;;6104556;23;20040;-87
2023/10/11 04:18:29;;;;;;;35.60;19.90;;;15.70;99.90;;;;;;6104085;23;19987;-87
2023/10/11 04:23:35;;;;;;;43.25;23.20;;;15.90;99.90;;;;;;6127686;23;20021;-88
2023/10/11 04:26:24;;;;;;;36.65;19.80;;;15.60;99.90;;;;;;6103972;23;20455;-88
2023/10/11 04:28:52;;;;;;;44.20;25.25;;;15.60;99.90;;;;;;6103568;23;20049;-87
2023/10/11 04:31:28;;;;;;;46.35;19.55;;;15.60;99.90;;;;;;6127646;23;20013;-86
2023/10/11 04:33:54;;;;;;;42.45;19.75;;;16.10;99.90;;;;;;6103525;23;20333;-87
2023/10/11 04:36:20;;;;;;;46.03;27.45;;;15.60;99.90;;;;;;6103584;23;20017;-85
2023/10/11 04:39:01;;;;;;;44.55;27.33;;;15.60;99.90;;;;;;6128322;23;20086;-88
2023/10/11 04:41:36;;;;;;;37.40;22.60;;;15.30;99.90;;;;;;6102634;23;20017;-88
2023/10/11 04:44:13;;;;;;;43.63;30.05;;;15.60;99.90;;;;;;6103413;23;20524;-87
2023/10/11 04:46:44;;;;;;;56.63;31.95;;;15.50;99.90;;;;;;6103373;23;20020;-87
2023/10/11 04:49:21;;;;;;;46.05;33.08;;;15.50;99.90;;;;;;6103261;23;20112;-88
2023/10/11 04:51:47;;;;;;;40.50;20.08;;;15.50;99.90;;;;;;6103019;23;20013;-88
2023/10/11 04:54:14;;;;;;;36.72;23.58;;;15.50;99.90;;;;;;6127223;23;20340;-88
2023/10/11 04:59:20;;;;;;;43.05;26.58;;;15.40;99.90;;;;;;6127435;23;20024;-88
2023/10/11 05:04:16;;;;;;;42.78;26.92;;;15.40;99.90;;;;;;6127775;23;20198;-88
2023/10/11 05:06:43;;;;;;;45.53;30.83;;;15.30;99.90;;;;;;6103668;23;20017;-86
2023/10/11 05:11:50;;;;;;;44.00;26.13;;;15.80;99.90;;;;;;6126603;23;20018;-88
2023/10/11 05:14:56;;;;;;;46.47;29.08;;;15.30;99.90;;;;;;6100942;23;20013;-89
2023/10/11 05:25:39;;;;;;;48.80;28.30;;;15.30;99.90;;;;;;6126256;23;20018;-89
2023/10/11 05:28:15;;;;;;;47.47;26.88;;;15.30;99.90;;;;;;6127362;23;20318;-89
2023/10/11 05:30:44;;;;;;;45.03;28.75;;;15.30;99.90;;;;;;6102617;23;20055;-89
2023/10/11 05:36:39;;;;;;;43.58;30.17;;;15.60;99.90;;;;;;6152676;23;20009;-90
2023/10/11 05:52:55;;;;;;;44.50;29.50;;;15.50;99.90;;;;;;6106780;23;20053;-86
2023/10/11 05:55:22;;;;;;;45.42;23.85;;;15.30;99.90;;;;;;6097468;23;20018;-91
2023/10/11 05:57:50;;;;;;;43.42;30.08;;;15.30;99.90;;;;;;6096662;23;20092;-88
2023/10/11 06:00:25;;;;;;;51.22;23.70;;;15.40;99.90;;;;;;6095570;23;20078;-89
2023/10/11 06:02:52;;;;;;;40.20;28.08;;;15.40;99.90;;;;;;6093085;23;20101;-87
2023/10/11 06:05:23;;;;;;;52.97;27.08;;;15.30;99.90;;;;;;6089518;23;20018;-86
2023/10/11 06:08:03;;;;;;;51.03;30.55;;;15.40;99.90;;;;;;6116063;23;20018;-90
2023/10/11 06:10:41;;;;;;;47.35;27.85;;;15.40;99.90;;;;;;6092178;23;20090;-90
2023/10/11 06:13:13;;;;;;;43.17;27.40;;;15.40;99.90;;;;;;6071341;23;20029;-88
2023/10/11 06:16:02;;;;;;;52.87;31.00;;;15.40;99.90;;;;;;6091991;23;20025;-89
2023/10/11 06:43:37;;;;;;;49.35;28.23;;;16.00;99.90;;;;;;6176442;23;20021;-86
2023/10/11 06:46:03;;;;;;;43.33;25.58;;;16.00;99.90;;;;;;6128078;23;20040;-88
2023/10/11 06:48:29;;;;;;;47.65;23.25;;;16.00;99.90;;;;;;6137538;23;20009;-92
2023/10/11 06:50:55;;;;;;;45.10;22.55;;;15.90;99.90;;;;;;6137672;23;20027;-89
2023/10/11 06:53:21;;;;;;;47.83;23.92;;;16.10;99.90;;;;;;6136439;23;20005;-90
2023/10/11 06:55:50;;;;;;;49.03;22.38;;;16.10;99.90;;;;;;6137030;23;20129;-90
2023/10/11 06:58:16;;;;;;;46.30;28.42;;;16.00;99.90;;;;;;6134077;23;20048;-88
2023/10/11 07:00:53;;;;;;;46.63;23.67;;;16.20;99.90;;;;;;6192527;23;20020;-95
2023/10/11 07:06:14;;;;;;;45.15;26.15;;;16.20;99.90;;;;;;6217545;23;20013;-92
2023/10/11 07:08:58;;;;;;;47.20;23.35;;;16.20;99.90;;;;;;6213057;23;20008;-91
2023/10/11 07:11:41;;;;;;;48.47;22.83;;;16.20;99.90;;;;;;6221966;23;20047;-93
2023/10/11 07:14:14;;;;;;;43.63;22.70;;;16.20;99.90;;;;;;6221297;23;20040;-91
2023/10/11 07:16:44;;;;;;;45.70;25.23;;;16.20;99.90;;;;;;6197567;23;20028;-92
2023/10/11 07:19:11;;;;;;;49.38;21.92;;;16.30;99.90;;;;;;6216522;23;20031;-89
2023/10/11 07:24:32;;;;;;;42.67;26.05;;;16.40;99.90;;;;;;6235046;23;20027;-84
2023/10/11 07:27:08;;;;;;;44.50;23.10;;;16.50;99.90;;;;;;6208199;23;20066;-85
2023/10/11 07:29:35;;;;;;;42.53;20.27;;;16.40;99.90;;;;;;6209891;23;20012;-86
2023/10/11 07:32:02;;;;;;;46.95;22.30;;;16.40;99.90;;;;;;6211108;23;20096;-84
2023/10/11 07:34:28;;;;;;;45.50;21.60;;;16.50;99.90;;;;;;6209255;23;20008;-87
2023/10/11 07:36:56;;;;;;;41.53;22.55;;;16.50;99.90;;;;;;6241862;23;20068;-88
2023/10/11 07:44:27;;;;;;;38.38;22.63;;;16.50;99.90;;;;;;6179529;23;20039;-88
2023/10/11 07:46:55;;;;;;;54.15;27.40;;;16.60;99.90;;;;;;6204834;23;20067;-91
2023/10/11 07:49:23;;;;;;;59.30;31.23;;;16.60;99.90;;;;;;6212647;23;20016;-90
2023/10/11 07:51:58;;;;;;;50.22;27.08;;;16.60;99.90;;;;;;6210564;23;20009;-91
2023/10/11 07:54:26;;;;;;;72.50;44.53;;;16.60;99.90;;;;;;6237031;23;20083;-90
2023/10/11 07:56:57;;;;;;;50.13;23.35;;;16.60;99.90;;;;;;6213481;23;20000;-87
2023/10/11 07:59:26;;;;;;;40.45;23.35;;;16.80;99.90;;;;;;6210673;23;20063;-88
2023/10/11 08:02:07;;;;;;;53.80;28.20;;;16.70;99.90;;;;;;6207488;23;20044;-89
2023/10/11 08:04:35;;;;;;;44.78;23.92;;;16.70;99.90;;;;;;6208223;23;20047;-89
2023/10/11 08:07:03;;;;;;;48.30;23.00;;;16.70;99.90;;;;;;6206869;23;20008;-87
2023/10/11 08:09:45;;;;;;;51.90;23.48;;;16.80;99.90;;;;;;6203262;23;20009;-86
2023/10/11 08:12:24;;;;;;;48.70;24.15;;;16.80;99.90;;;;;;6206680;23;20008;-87
2023/10/11 08:14:53;;;;;;;52.03;24.65;;;16.90;99.90;;;;;;6206103;23;20016;-87
2023/10/11 08:17:20;;;;;;;50.67;24.80;;;17.00;99.90;;;;;;6207729;23;20012;-86
2023/10/11 08:19:48;;;;;;;46.58;25.10;;;16.80;99.90;;;;;;6204869;23;20020;-87
2023/10/11 08:22:15;;;;;;;51.83;27.40;;;16.80;99.90;;;;;;6206306;23;20083;-86
2023/10/11 08:24:46;;;;;;;60.17;26.15;;;16.90;99.90;;;;;;6209522;23;20017;-89
2023/10/11 08:27:28;;;;;;;50.53;26.70;;;16.80;99.90;;;;;;6209096;23;20009;-86
2023/10/11 08:30:05;;;;;;;56.03;26.75;;;16.90;99.90;;;;;;6207354;23;20034;-86
2023/10/11 08:32:42;;;;;;;50.70;26.42;;;17.00;99.90;;;;;;6201867;23;20020;-84
2023/10/11 08:35:09;;;;;;;61.20;30.45;;;16.80;99.90;;;;;;6205320;23;20021;-87
2023/10/11 08:37:37;;;;;;;51.95;27.23;;;16.90;99.90;;;;;;6205787;23;20036;-83
2023/10/11 08:40:29;;;;;;;53.10;26.90;;;17.00;99.90;;;;;;6226966;23;20059;-86
2023/10/11 08:42:59;;;;;;;49.15;25.33;;;16.90;99.90;;;;;;6199556;23;20012;-85
2023/10/11 08:45:33;;;;;;;54.38;25.67;;;16.90;99.90;;;;;;6226334;23;20021;-85
2023/10/11 08:48:08;;;;;;;54.10;26.70;;;16.90;99.90;;;;;;6223963;23;20123;-85
2023/10/11 08:50:35;;;;;;;54.03;26.77;;;17.00;99.90;;;;;;6201326;23;20036;-84
2023/10/11 08:53:08;;;;;;;52.17;26.00;;;17.00;99.90;;;;;;6225804;23;20430;-85
2023/10/11 08:55:39;;;;;;;50.00;25.08;;;17.00;99.90;;;;;;6225052;23;20009;-85
2023/10/11 08:58:12;;;;;;;51.42;26.20;;;17.00;99.90;;;;;;6200806;23;20020;-85
2023/10/11 09:00:37;;;;;;;54.03;27.08;;;17.10;99.90;;;;;;6200519;23;20021;-85
2023/10/11 09:03:17;;;;;;;50.95;26.95;;;17.00;99.90;;;;;;6200856;23;20019;-84
2023/10/11 09:05:43;;;;;;;45.05;24.55;;;17.00;99.90;;;;;;6196833;23;20175;-85
2023/10/11 09:08:26;;;;;;;53.05;25.25;;;17.00;99.90;;;;;;6225042;23;20036;-83
2023/10/11 09:10:52;;;;;;;49.90;24.58;;;17.00;99.90;;;;;;6198622;23;20023;-85
2023/10/11 09:13:27;;;;;;;62.28;24.38;;;17.10;99.90;;;;;;6225018;23;20068;-86
2023/10/11 09:15:56;;;;;;;41.65;22.60;;;17.10;99.90;;;;;;6201222;23;20043;-84
2023/10/11 09:18:25;;;;;;;42.88;23.17;;;17.10;99.90;;;;;;6209549;23;20315;-89
2023/10/11 09:21:08;;;;;;;38.70;22.35;;;17.10;99.90;;;;;;6211773;23;20009;-87
2023/10/11 09:23:39;;;;;;;41.07;20.90;;;17.10;99.90;;;;;;6211083;23;20012;-86
2023/10/11 09:26:08;;;;;;;42.58;19.73;;;17.10;99.90;;;;;;6209790;23;20017;-86
2023/10/11 09:28:34;;;;;;;42.55;20.73;;;17.40;99.90;;;;;;6184842;23;20026;-89
2023/10/11 09:31:20;;;;;;;35.08;19.85;;;17.10;99.90;;;;;;6205947;23;20044;-88
2023/10/11 09:33:51;;;;;;;40.83;19.17;;;17.00;99.90;;;;;;6205218;23;20019;-88
2023/10/11 09:36:24;;;;;;;36.75;21.40;;;17.10;99.90;;;;;;6209556;23;20036;-90
2023/10/11 09:38:54;;;;;;;38.22;18.73;;;17.20;99.90;;;;;;6213318;23;20020;-92
2023/10/11 09:41:24;;;;;;;34.97;17.58;;;17.20;99.90;;;;;;6212957;23;20036;-89
2023/10/11 09:43:54;;;;;;;31.20;17.00;;;17.20;99.90;;;;;;6208646;23;20004;-88
2023/10/11 09:46:25;;;;;;;27.05;16.10;;;17.20;99.90;;;;;;6210668;23;20060;-89
2023/10/11 09:48:50;;;;;;;26.13;15.52;;;17.00;99.90;;;;;;6207480;23;20008;-89
2023/10/11 09:51:17;;;;;;;24.05;15.07;;;17.20;99.90;;;;;;6194166;23;20004;-91
2023/10/11 09:53:49;;;;;;;27.52;15.30;;;17.20;99.90;;;;;;6190560;23;20098;-90
2023/10/11 09:56:24;;;;;;;26.40;14.37;;;17.40;99.90;;;;;;6191219;23;20019;-93
2023/10/11 09:59:00;;;;;;;26.33;15.15;;;17.50;99.90;;;;;;6190125;23;20024;-89
2023/10/11 10:01:41;;;;;;;23.58;14.90;;;17.60;99.90;;;;;;6189199;23;20023;-87
2023/10/11 10:04:09;;;;;;;21.10;14.80;;;17.70;99.90;;;;;;6212468;23;20071;-87
2023/10/11 10:06:35;;;;;;;24.65;14.80;;;17.80;99.90;;;;;;6188431;23;20023;-88
2023/10/11 15:44:15;;;;;;;14.70;13.02;;;19.20;99.90;;;;;;6259042;23;20054;-87
2023/10/11 15:46:41;;;;;;;15.40;13.32;;;19.20;99.90;;;;;;6233027;23;20012;-87
2023/10/11 15:49:07;;;;;;;18.85;13.95;;;19.10;99.90;;;;;;6230883;23;20016;-86
2023/10/11 15:51:33;;;;;;;18.33;13.10;;;19.00;99.90;;;;;;6230321;23;20018;-89
2023/10/11 15:53:58;;;;;;;18.95;12.18;;;19.00;99.90;;;;;;6209757;23;20012;-88
2023/10/11 15:56:25;;;;;;;16.05;10.95;;;18.90;99.90;;;;;;6208291;23;20051;-87
2023/10/11 15:58:52;;;;;;;13.20;11.45;;;18.80;99.90;;;;;;6207417;23;20004;-87
2023/10/11 16:01:18;;;;;;;14.43;10.60;;;18.90;99.90;;;;;;6206489;23;20047;-86
2023/10/11 16:03:50;;;;;;;17.98;11.15;;;18.80;99.90;;;;;;6232502;23;20012;-87
2023/10/11 16:06:17;;;;;;;19.42;11.77;;;18.70;99.90;;;;;;6206743;23;20095;-87
2023/10/11 16:08:44;;;;;;;18.65;11.55;;;18.60;99.90;;;;;;6206083;23;20020;-88
2023/10/11 16:11:13;;;;;;;16.65;11.57;;;18.60;99.90;;;;;;6207814;23;20055;-87
2023/10/11 16:13:44;;;;;;;14.32;10.52;;;18.60;99.90;;;;;;6235009;23;20063;-87
2023/10/11 16:16:12;;;;;;;16.45;10.65;;;18.50;99.90;;;;;;6209467;23;20008;-87
2023/10/11 16:18:40;;;;;;;18.45;12.27;;;18.50;99.90;;;;;;6207726;23;20016;-89
2023/10/11 16:21:07;;;;;;;16.05;10.48;;;18.40;99.90;;;;;;6209191;23;20039;-89
2023/10/11 16:23:33;;;;;;;19.02;10.98;;;18.40;99.90;;;;;;6211073;23;20005;-88
2023/10/11 16:26:00;;;;;;;16.13;12.45;;;18.20;99.90;;;;;;6209406;23;20043;-88
2023/10/11 16:28:30;;;;;;;20.23;12.10;;;18.30;99.90;;;;;;6235875;23;20016;-87
2023/10/11 16:30:58;;;;;;;17.88;12.48;;;18.10;99.90;;;;;;6242464;23;20027;-85
2023/10/11 16:33:29;;;;;;;18.40;11.13;;;18.30;99.90;;;;;;6241088;23;20039;-89
2023/10/11 16:35:58;;;;;;;20.25;12.35;;;18.30;99.90;;;;;;6217840;23;20011;-89
2023/10/11 16:38:25;;;;;;;20.98;12.43;;;18.20;99.90;;;;;;6215614;23;20039;-89
2023/10/11 16:40:51;;;;;;;19.48;13.00;;;18.20;99.90;;;;;;6213461;23;20016;-90
2023/10/11 16:43:20;;;;;;;20.95;12.75;;;18.20;99.90;;;;;;6206867;23;20153;-89
2023/10/11 16:45:47;;;;;;;24.30;15.35;;;18.20;99.90;;;;;;6230336;23;20013;-88
2023/10/11 16:48:13;;;;;;;20.27;12.50;;;18.20;99.90;;;;;;6206331;23;20036;-88
2023/10/11 16:50:43;;;;;;;24.08;12.43;;;18.10;99.90;;;;;;6229973;23;20025;-90
2023/10/11 16:53:09;;;;;;;18.20;11.02;;;18.10;99.90;;;;;;6227956;23;20209;-89
2023/10/11 16:55:36;;;;;;;19.02;11.38;;;18.10;99.90;;;;;;6232097;23;20020;-91
2023/10/11 17:00:41;;;;;;;25.00;18.20;;;18.00;99.90;;;;;;6325416;22;20044;-89
2023/10/11 17:03:10;;;;;;;22.58;12.57;;;18.10;99.90;;;;;;6269694;22;20098;-89
2023/10/11 17:05:37;;;;;;;23.02;14.90;;;17.90;99.90;;;;;;6266512;22;20015;-88
2023/10/11 17:08:04;;;;;;;18.60;11.77;;;17.90;99.90;;;;;;6269731;22;20015;-88
2023/10/11 17:10:33;;;;;;;20.10;12.35;;;17.90;99.90;;;;;;6297838;22;20015;-88
2023/10/11 17:13:00;;;;;;;22.33;11.95;;;17.80;99.90;;;;;;6274311;22;20015;-89
2023/10/11 17:15:26;;;;;;;21.17;15.40;;;17.80;99.90;;;;;;6300339;22;20023;-90
2023/10/11 17:17:53;;;;;;;21.38;13.77;;;17.80;99.90;;;;;;6250048;22;20049;-88
2023/10/11 17:20:21;;;;;;;25.75;16.17;;;17.80;99.90;;;;;;6301511;22;20073;-90
2023/10/11 17:22:52;;;;;;;24.23;17.13;;;17.80;99.90;;;;;;6274282;22;20022;-89
2023/10/11 17:25:21;;;;;;;21.98;14.38;;;17.70;99.90;;;;;;6300223;22;20019;-90
2023/10/11 17:27:52;;;;;;;25.02;16.77;;;17.80;99.90;;;;;;6274023;22;20042;-89
2023/10/11 17:30:19;;;;;;;22.48;13.77;;;17.70;99.90;;;;;;6269859;22;20012;-87
2023/10/11 17:32:46;;;;;;;22.02;13.65;;;17.80;99.90;;;;;;6294045;22;20019;-88
2023/10/11 17:35:15;;;;;;;23.35;12.70;;;17.60;99.90;;;;;;6268052;22;20011;-90
2023/10/11 17:37:45;;;;;;;23.95;14.65;;;17.70;99.90;;;;;;6269127;22;20015;-87
2023/10/11 17:40:11;;;;;;;22.98;14.77;;;17.70;99.90;;;;;;6268172;22;20018;-87
2023/10/11 17:42:40;;;;;;;30.27;15.48;;;17.50;99.90;;;;;;6269338;22;20433;-86
2023/10/11 17:45:06;;;;;;;25.77;15.13;;;17.60;99.90;;;;;;6266374;22;20011;-86
2023/10/11 17:47:34;;;;;;;24.98;13.60;;;17.60;99.90;;;;;;6266217;22;20016;-87
2023/10/11 17:50:04;;;;;;;24.10;13.32;;;17.70;99.90;;;;;;6267849;22;20008;-87
2023/10/11 17:52:31;;;;;;;28.65;15.32;;;17.50;99.90;;;;;;6267838;22;20011;-88
2023/10/11 17:54:57;;;;;;;29.17;15.52;;;17.50;99.90;;;;;;6260292;22;20019;-85
2023/10/11 17:57:24;;;;;;;22.42;15.95;;;17.40;99.90;;;;;;6289196;22;20015;-86
2023/10/11 17:59:52;;;;;;;21.75;15.93;;;17.40;99.90;;;;;;6266668;22;20015;-87
2023/10/11 18:02:23;;;;;;;25.65;16.27;;;17.30;99.90;;;;;;6258081;22;20015;-84
2023/10/11 18:04:50;;;;;;;28.00;16.48;;;17.30;99.90;;;;;;6284190;22;20086;-84
2023/10/11 18:07:16;;;;;;;28.23;18.10;;;17.30;99.90;;;;;;6260288;22;20370;-86
2023/10/11 18:09:42;;;;;;;50.83;29.10;;;17.30;99.90;;;;;;6261439;22;20333;-84
2023/10/11 18:12:09;;;;;;;36.13;20.13;;;17.40;99.90;;;;;;6259121;22;20011;-86
2023/10/11 18:14:34;;;;;;;32.97;20.33;;;17.30;99.90;;;;;;6261558;22;20022;-87
2023/10/11 18:17:00;;;;;;;34.20;20.83;;;17.20;99.90;;;;;;6286807;22;20008;-84
2023/10/11 18:19:26;;;;;;;37.33;20.23;;;17.30;99.90;;;;;;6285391;22;20105;-86
2023/10/11 18:21:53;;;;;;;38.53;21.80;;;17.20;99.90;;;;;;6287221;22;20011;-86
2023/10/11 18:24:19;;;;;;;44.80;21.83;;;17.20;99.90;;;;;;6261475;22;20016;-84
2023/10/11 18:26:47;;;;;;;39.22;24.05;;;17.20;99.90;;;;;;6287237;22;20322;-85
2023/10/11 18:29:16;;;;;;;42.95;24.42;;;17.20;99.90;;;;;;6260964;22;20035;-85
2023/10/11 18:31:44;;;;;;;45.35;23.73;;;17.30;99.90;;;;;;6249378;22;20065;-82
2023/10/11 18:34:10;;;;;;;40.72;22.90;;;17.20;99.90;;;;;;6275613;22;20046;-81
2023/10/11 18:36:37;;;;;;;40.40;23.77;;;17.30;99.90;;;;;;6303230;22;20007;-82
2023/10/11 18:39:03;;;;;;;33.22;21.40;;;17.20;99.90;;;;;;6277913;22;20015;-83
2023/10/11 18:41:29;;;;;;;41.17;21.67;;;17.20;99.90;;;;;;6288253;22;20081;-83
2023/10/11 18:43:55;;;;;;;40.33;21.42;;;17.20;99.90;;;;;;6285165;22;20019;-84
2023/10/11 18:46:22;;;;;;;41.63;23.85;;;17.10;99.90;;;;;;6286670;22;20015;-84
2023/10/11 18:48:48;;;;;;;39.38;22.77;;;17.10;99.90;;;;;;6285795;22;20011;-85
2023/10/11 18:51:19;;;;;;;39.00;21.20;;;17.10;99.90;;;;;;6260888;22;20019;-83
2023/10/11 18:53:45;;;;;;;31.60;20.27;;;17.10;99.90;;;;;;6263878;22;20066;-86
2023/10/11 18:56:12;;;;;;;39.72;21.38;;;17.20;99.90;;;;;;6265137;22;20014;-84
2023/10/11 18:58:38;;;;;;;33.65;20.67;;;17.10;99.90;;;;;;6290532;22;20149;-85
2023/10/11 19:01:05;;;;;;;40.92;22.10;;;17.00;99.90;;;;;;6289648;22;20027;-86
2023/10/11 19:03:31;;;;;;;43.30;26.42;;;17.00;99.90;;;;;;6265858;22;20560;-85
2023/10/11 19:06:01;;;;;;;34.67;19.65;;;17.10;99.90;;;;;;6290405;22;20015;-84
2023/10/11 19:08:27;;;;;;;40.63;22.60;;;16.90;99.90;;;;;;6289460;22;20016;-84
2023/10/11 19:10:53;;;;;;;41.38;19.20;;;16.90;99.90;;;;;;6289774;22;20007;-85
2023/10/11 19:13:20;;;;;;;31.67;19.33;;;17.00;99.90;;;;;;6291705;22;20372;-85
2023/10/11 19:15:46;;;;;;;29.10;18.25;;;16.80;99.90;;;;;;6291873;22;20015;-83
2023/10/11 19:18:16;;;;;;;33.13;17.42;;;16.70;99.90;;;;;;6290314;22;20027;-84
2023/10/11 19:20:44;;;;;;;34.35;17.23;;;16.80;99.90;;;;;;6265366;22;20067;-82
2023/10/11 19:23:11;;;;;;;36.17;18.52;;;16.50;99.90;;;;;;6267277;22;20015;-83
2023/10/11 19:25:37;;;;;;;40.28;19.02;;;16.70;99.90;;;;;;6265915;22;20015;-85
2023/10/11 19:28:03;;;;;;;35.58;18.65;;;16.70;99.90;;;;;;6283474;22;20333;-84
2023/10/11 19:30:29;;;;;;;32.33;18.85;;;16.00;99.90;;;;;;6284111;22;20015;-85
2023/10/11 19:32:54;;;;;;;35.95;18.60;;;16.60;99.90;;;;;;6282648;22;20529;-84
2023/10/11 19:35:21;;;;;;;38.00;19.55;;;16.60;99.90;;;;;;6282457;22;20069;-85
2023/10/11 19:37:47;;;;;;;36.55;20.30;;;16.60;99.90;;;;;;6284372;22;20094;-85